sensor_id;sensor_type;location;lat;lon;timestamp;P1;durP1;ratioP1;P2;durP2;ratioP2
60478;SDS011;46321;48.398;11.754;2023-04-08T00:00:09;15.27;;;8.80;;
60478;SDS011;46321;48.398;11.754;2023-04-08T00:02:35;14.23;;;8.52;;
60478;SDS011;46321;48.398;11.754;2023-04-08T00:05:01;13.93;;;8.02;;
60478;SDS011;46321;48.398;11.754;2023-04-08T00:07:26;13.43;;;8.30;;
60478;SDS011;46321;48.398;11.754;2023-04-08T00:09:51;16.45;;;8.60;;
60478;SDS011;46321;48.398;11.754;2023-04-08T00:12:16;11.60;;;7.22;;
60478;SDS011;46321;48.398;11.754;2023-04-08T00:14:42;14.70;;;7.97;;
60478;SDS011;46321;48.398;11.754;2023-04-08T00:17:07;15.85;;;8.68;;
60478;SDS011;46321;48.398;11.754;2023-04-08T00:19:32;15.05;;;8.30;;
60478;SDS011;46321;48.398;11.754;2023-04-08T00:21:58;11.45;;;7.50;;
60478;SDS011;46321;48.398;11.754;2023-04-08T00:24:23;13.18;;;8.15;;
60478;SDS011;46321;48.398;11.754;2023-04-08T00:26:49;12.85;;;7.43;;
60478;SDS011;46321;48.398;11.754;2023-04-08T00:29:14;13.25;;;7.35;;
60478;SDS011;46321;48.398;11.754;2023-04-08T00:31:40;13.18;;;7.75;;
60478;SDS011;46321;48.398;11.754;2023-04-08T00:34:05;14.80;;;7.88;;
60478;SDS011;46321;48.398;11.754;2023-04-08T00:36:30;13.38;;;7.97;;
60478;SDS011;46321;48.398;11.754;2023-04-08T00:38:56;13.73;;;7.80;;
60478;SDS011;46321;48.398;11.754;2023-04-08T00:41:21;16.30;;;8.30;;
60478;SDS011;46321;48.398;11.754;2023-04-08T00:43:46;13.82;;;8.13;;
60478;SDS011;46321;48.398;11.754;2023-04-08T00:46:12;17.02;;;8.25;;
60478;SDS011;46321;48.398;11.754;2023-04-08T00:48:37;19.20;;;8.70;;
60478;SDS011;46321;48.398;11.754;2023-04-08T00:51:02;16.38;;;8.30;;
60478;SDS011;46321;48.398;11.754;2023-04-08T00:53:29;17.38;;;8.63;;
60478;SDS011;46321;48.398;11.754;2023-04-08T00:55:55;17.35;;;9.27;;
60478;SDS011;46321;48.398;11.754;2023-04-08T00:58:20;16.33;;;8.00;;
60478;SDS011;46321;48.398;11.754;2023-04-08T01:00:47;16.08;;;8.57;;
60478;SDS011;46321;48.398;11.754;2023-04-08T01:03:33;17.33;;;8.40;;
60478;SDS011;46321;48.398;11.754;2023-04-08T01:06:14;15.68;;;8.25;;
60478;SDS011;46321;48.398;11.754;2023-04-08T01:08:43;16.85;;;8.80;;
60478;SDS011;46321;48.398;11.754;2023-04-08T01:11:10;15.95;;;8.70;;
60478;SDS011;46321;48.398;11.754;2023-04-08T01:13:38;15.55;;;8.40;;
60478;SDS011;46321;48.398;11.754;2023-04-08T01:16:07;15.00;;;8.43;;
60478;SDS011;46321;48.398;11.754;2023-04-08T01:18:36;16.45;;;8.60;;
60478;SDS011;46321;48.398;11.754;2023-04-08T01:21:02;16.15;;;9.40;;
60478;SDS011;46321;48.398;11.754;2023-04-08T01:26:28;16.33;;;8.75;;
60478;SDS011;46321;48.398;11.754;2023-04-08T01:28:55;16.67;;;8.85;;
60478;SDS011;46321;48.398;11.754;2023-04-08T01:31:23;18.50;;;9.55;;
60478;SDS011;46321;48.398;11.754;2023-04-08T01:33:50;16.92;;;9.30;;
60478;SDS011;46321;48.398;11.754;2023-04-08T01:36:16;18.45;;;9.32;;
60478;SDS011;46321;48.398;11.754;2023-04-08T01:38:44;15.60;;;9.05;;
60478;SDS011;46321;48.398;11.754;2023-04-08T01:41:10;18.92;;;9.68;;
60478;SDS011;46321;48.398;11.754;2023-04-08T01:43:37;19.90;;;9.93;;
60478;SDS011;46321;48.398;11.754;2023-04-08T01:46:04;17.65;;;9.70;;
60478;SDS011;46321;48.398;11.754;2023-04-08T01:48:31;16.92;;;9.40;;
60478;SDS011;46321;48.398;11.754;2023-04-08T01:50:57;18.83;;;9.75;;
60478;SDS011;46321;48.398;11.754;2023-04-08T01:53:24;17.25;;;10.00;;
60478;SDS011;46321;48.398;11.754;2023-04-08T01:55:51;18.60;;;9.55;;
60478;SDS011;46321;48.398;11.754;2023-04-08T01:58:22;20.23;;;10.02;;
60478;SDS011;46321;48.398;11.754;2023-04-08T02:00:50;16.80;;;10.13;;
60478;SDS011;46321;48.398;11.754;2023-04-08T02:03:18;19.52;;;10.77;;
60478;SDS011;46321;48.398;11.754;2023-04-08T02:05:47;18.20;;;9.52;;
60478;SDS011;46321;48.398;11.754;2023-04-08T02:08:12;18.80;;;9.98;;
60478;SDS011;46321;48.398;11.754;2023-04-08T02:10:37;18.63;;;9.82;;
60478;SDS011;46321;48.398;11.754;2023-04-08T02:13:02;18.13;;;9.63;;
60478;SDS011;46321;48.398;11.754;2023-04-08T02:15:28;16.48;;;10.02;;
60478;SDS011;46321;48.398;11.754;2023-04-08T02:18:00;19.48;;;10.18;;
60478;SDS011;46321;48.398;11.754;2023-04-08T02:20:38;16.13;;;9.35;;
60478;SDS011;46321;48.398;11.754;2023-04-08T02:23:20;18.73;;;10.32;;
60478;SDS011;46321;48.398;11.754;2023-04-08T02:25:48;18.63;;;10.25;;
60478;SDS011;46321;48.398;11.754;2023-04-08T02:28:14;18.55;;;10.18;;
60478;SDS011;46321;48.398;11.754;2023-04-08T02:30:43;16.00;;;9.20;;
60478;SDS011;46321;48.398;11.754;2023-04-08T02:33:16;19.65;;;10.30;;
60478;SDS011;46321;48.398;11.754;2023-04-08T02:35:44;20.13;;;10.85;;
60478;SDS011;46321;48.398;11.754;2023-04-08T02:38:12;18.25;;;9.95;;
60478;SDS011;46321;48.398;11.754;2023-04-08T02:40:37;17.88;;;9.80;;
60478;SDS011;46321;48.398;11.754;2023-04-08T02:43:03;20.20;;;10.18;;
60478;SDS011;46321;48.398;11.754;2023-04-08T02:45:32;17.23;;;9.73;;
60478;SDS011;46321;48.398;11.754;2023-04-08T02:48:02;16.75;;;9.70;;
60478;SDS011;46321;48.398;11.754;2023-04-08T02:50:29;15.93;;;9.23;;
60478;SDS011;46321;48.398;11.754;2023-04-08T02:52:54;16.02;;;9.45;;
60478;SDS011;46321;48.398;11.754;2023-04-08T02:55:19;19.23;;;10.40;;
60478;SDS011;46321;48.398;11.754;2023-04-08T02:57:45;18.67;;;10.15;;
60478;SDS011;46321;48.398;11.754;2023-04-08T03:00:11;18.95;;;10.07;;
60478;SDS011;46321;48.398;11.754;2023-04-08T03:02:37;17.15;;;9.77;;
60478;SDS011;46321;48.398;11.754;2023-04-08T03:05:02;17.58;;;10.45;;
60478;SDS011;46321;48.398;11.754;2023-04-08T03:07:29;20.00;;;10.43;;
60478;SDS011;46321;48.398;11.754;2023-04-08T03:09:55;19.58;;;10.32;;
60478;SDS011;46321;48.398;11.754;2023-04-08T03:12:20;16.55;;;9.60;;
60478;SDS011;46321;48.398;11.754;2023-04-08T03:14:46;19.08;;;10.15;;
60478;SDS011;46321;48.398;11.754;2023-04-08T03:17:11;18.80;;;9.90;;
60478;SDS011;46321;48.398;11.754;2023-04-08T03:19:37;17.80;;;9.70;;
60478;SDS011;46321;48.398;11.754;2023-04-08T03:22:02;17.73;;;10.32;;
60478;SDS011;46321;48.398;11.754;2023-04-08T03:24:27;17.48;;;9.85;;
60478;SDS011;46321;48.398;11.754;2023-04-08T03:26:52;18.70;;;10.25;;
60478;SDS011;46321;48.398;11.754;2023-04-08T03:29:18;20.88;;;11.02;;
60478;SDS011;46321;48.398;11.754;2023-04-08T03:31:43;17.40;;;10.23;;
60478;SDS011;46321;48.398;11.754;2023-04-08T03:34:08;18.13;;;9.82;;
60478;SDS011;46321;48.398;11.754;2023-04-08T03:36:33;19.42;;;10.60;;
60478;SDS011;46321;48.398;11.754;2023-04-08T03:38:59;19.38;;;10.63;;
60478;SDS011;46321;48.398;11.754;2023-04-08T03:41:24;18.95;;;10.63;;
60478;SDS011;46321;48.398;11.754;2023-04-08T03:43:50;17.27;;;9.98;;
60478;SDS011;46321;48.398;11.754;2023-04-08T03:46:15;18.48;;;10.25;;
60478;SDS011;46321;48.398;11.754;2023-04-08T03:48:40;18.60;;;9.73;;
60478;SDS011;46321;48.398;11.754;2023-04-08T03:51:05;21.42;;;10.52;;
60478;SDS011;46321;48.398;11.754;2023-04-08T03:53:31;20.05;;;10.43;;
60478;SDS011;46321;48.398;11.754;2023-04-08T03:55:56;18.75;;;9.70;;
60478;SDS011;46321;48.398;11.754;2023-04-08T03:58:21;17.13;;;10.13;;
60478;SDS011;46321;48.398;11.754;2023-04-08T04:00:47;19.52;;;10.45;;
60478;SDS011;46321;48.398;11.754;2023-04-08T04:03:12;19.17;;;10.73;;
60478;SDS011;46321;48.398;11.754;2023-04-08T04:05:38;18.33;;;10.27;;
60478;SDS011;46321;48.398;11.754;2023-04-08T04:08:04;20.17;;;9.95;;
60478;SDS011;46321;48.398;11.754;2023-04-08T04:10:29;18.05;;;10.63;;
60478;SDS011;46321;48.398;11.754;2023-04-08T04:12:55;18.30;;;10.40;;
60478;SDS011;46321;48.398;11.754;2023-04-08T04:15:20;21.73;;;10.75;;
60478;SDS011;46321;48.398;11.754;2023-04-08T04:17:48;16.88;;;10.07;;
60478;SDS011;46321;48.398;11.754;2023-04-08T04:20:14;19.60;;;11.13;;
60478;SDS011;46321;48.398;11.754;2023-04-08T04:22:40;22.42;;;10.38;;
60478;SDS011;46321;48.398;11.754;2023-04-08T04:25:06;17.75;;;10.45;;
60478;SDS011;46321;48.398;11.754;2023-04-08T04:27:31;17.05;;;10.15;;
60478;SDS011;46321;48.398;11.754;2023-04-08T04:29:57;16.95;;;9.85;;
60478;SDS011;46321;48.398;11.754;2023-04-08T04:32:22;17.77;;;9.88;;
60478;SDS011;46321;48.398;11.754;2023-04-08T04:34:47;18.70;;;9.88;;
60478;SDS011;46321;48.398;11.754;2023-04-08T04:37:12;20.50;;;10.20;;
60478;SDS011;46321;48.398;11.754;2023-04-08T04:39:38;19.65;;;10.10;;
60478;SDS011;46321;48.398;11.754;2023-04-08T04:42:03;18.13;;;10.40;;
60478;SDS011;46321;48.398;11.754;2023-04-08T04:44:28;17.05;;;9.43;;
60478;SDS011;46321;48.398;11.754;2023-04-08T04:46:54;22.27;;;10.80;;
60478;SDS011;46321;48.398;11.754;2023-04-08T04:49:19;27.67;;;12.95;;
60478;SDS011;46321;48.398;11.754;2023-04-08T04:51:44;18.90;;;10.73;;
60478;SDS011;46321;48.398;11.754;2023-04-08T04:54:10;18.45;;;10.13;;
60478;SDS011;46321;48.398;11.754;2023-04-08T04:56:35;21.10;;;10.45;;
60478;SDS011;46321;48.398;11.754;2023-04-08T04:59:00;21.00;;;10.82;;
60478;SDS011;46321;48.398;11.754;2023-04-08T05:01:26;17.92;;;10.40;;
60478;SDS011;46321;48.398;11.754;2023-04-08T05:03:52;20.48;;;10.63;;
60478;SDS011;46321;48.398;11.754;2023-04-08T05:06:18;20.48;;;10.40;;
60478;SDS011;46321;48.398;11.754;2023-04-08T05:08:43;19.75;;;11.27;;
60478;SDS011;46321;48.398;11.754;2023-04-08T05:11:09;23.33;;;10.93;;
60478;SDS011;46321;48.398;11.754;2023-04-08T05:13:34;19.75;;;10.98;;
60478;SDS011;46321;48.398;11.754;2023-04-08T05:16:00;18.08;;;10.65;;
60478;SDS011;46321;48.398;11.754;2023-04-08T05:18:25;22.35;;;10.88;;
60478;SDS011;46321;48.398;11.754;2023-04-08T05:20:51;51.70;;;24.13;;
60478;SDS011;46321;48.398;11.754;2023-04-08T05:23:16;26.60;;;13.63;;
60478;SDS011;46321;48.398;11.754;2023-04-08T05:25:41;20.70;;;11.18;;
60478;SDS011;46321;48.398;11.754;2023-04-08T05:28:06;17.95;;;10.20;;
60478;SDS011;46321;48.398;11.754;2023-04-08T05:30:32;21.42;;;10.57;;
60478;SDS011;46321;48.398;11.754;2023-04-08T05:32:57;19.40;;;9.98;;
60478;SDS011;46321;48.398;11.754;2023-04-08T05:35:22;22.00;;;11.00;;
60478;SDS011;46321;48.398;11.754;2023-04-08T05:37:48;19.67;;;10.55;;
60478;SDS011;46321;48.398;11.754;2023-04-08T05:40:13;18.80;;;10.73;;
60478;SDS011;46321;48.398;11.754;2023-04-08T05:42:38;25.40;;;11.05;;
60478;SDS011;46321;48.398;11.754;2023-04-08T05:45:06;25.25;;;11.63;;
60478;SDS011;46321;48.398;11.754;2023-04-08T05:47:31;20.10;;;11.18;;
60478;SDS011;46321;48.398;11.754;2023-04-08T05:49:57;24.83;;;11.30;;
60478;SDS011;46321;48.398;11.754;2023-04-08T05:52:22;21.58;;;11.27;;
60478;SDS011;46321;48.398;11.754;2023-04-08T05:54:47;21.67;;;10.70;;
60478;SDS011;46321;48.398;11.754;2023-04-08T05:57:12;22.48;;;11.30;;
60478;SDS011;46321;48.398;11.754;2023-04-08T05:59:38;21.60;;;10.82;;
60478;SDS011;46321;48.398;11.754;2023-04-08T06:02:03;21.70;;;11.32;;
60478;SDS011;46321;48.398;11.754;2023-04-08T06:04:28;21.80;;;11.18;;
60478;SDS011;46321;48.398;11.754;2023-04-08T06:06:54;26.77;;;12.98;;
60478;SDS011;46321;48.398;11.754;2023-04-08T06:09:20;30.88;;;13.55;;
60478;SDS011;46321;48.398;11.754;2023-04-08T06:11:46;21.70;;;11.00;;
60478;SDS011;46321;48.398;11.754;2023-04-08T06:14:13;21.98;;;11.23;;
60478;SDS011;46321;48.398;11.754;2023-04-08T06:16:38;21.88;;;11.25;;
60478;SDS011;46321;48.398;11.754;2023-04-08T06:19:03;20.85;;;11.25;;
60478;SDS011;46321;48.398;11.754;2023-04-08T06:21:29;23.63;;;11.75;;
60478;SDS011;46321;48.398;11.754;2023-04-08T06:23:54;22.23;;;11.73;;
60478;SDS011;46321;48.398;11.754;2023-04-08T06:26:19;22.75;;;11.20;;
60478;SDS011;46321;48.398;11.754;2023-04-08T06:28:45;22.88;;;11.68;;
60478;SDS011;46321;48.398;11.754;2023-04-08T06:31:10;22.50;;;11.27;;
60478;SDS011;46321;48.398;11.754;2023-04-08T06:33:35;23.55;;;11.85;;
60478;SDS011;46321;48.398;11.754;2023-04-08T06:36:04;22.08;;;11.80;;
60478;SDS011;46321;48.398;11.754;2023-04-08T06:38:31;22.05;;;11.65;;
60478;SDS011;46321;48.398;11.754;2023-04-08T06:41:01;27.02;;;13.38;;
60478;SDS011;46321;48.398;11.754;2023-04-08T06:43:27;22.65;;;12.00;;
60478;SDS011;46321;48.398;11.754;2023-04-08T06:45:52;22.02;;;11.77;;
60478;SDS011;46321;48.398;11.754;2023-04-08T06:48:18;24.13;;;12.05;;
60478;SDS011;46321;48.398;11.754;2023-04-08T06:50:43;24.58;;;11.90;;
60478;SDS011;46321;48.398;11.754;2023-04-08T06:53:08;28.25;;;14.45;;
60478;SDS011;46321;48.398;11.754;2023-04-08T06:55:34;32.00;;;16.45;;
60478;SDS011;46321;48.398;11.754;2023-04-08T06:57:59;23.08;;;11.90;;
60478;SDS011;46321;48.398;11.754;2023-04-08T07:00:26;21.10;;;10.90;;
60478;SDS011;46321;48.398;11.754;2023-04-08T07:02:51;20.45;;;10.80;;
60478;SDS011;46321;48.398;11.754;2023-04-08T07:05:16;22.70;;;11.20;;
60478;SDS011;46321;48.398;11.754;2023-04-08T07:07:42;22.90;;;11.90;;
60478;SDS011;46321;48.398;11.754;2023-04-08T07:10:07;19.75;;;11.55;;
60478;SDS011;46321;48.398;11.754;2023-04-08T07:12:33;23.40;;;12.50;;
60478;SDS011;46321;48.398;11.754;2023-04-08T07:14:58;23.05;;;13.10;;
60478;SDS011;46321;48.398;11.754;2023-04-08T07:17:23;25.33;;;13.85;;
60478;SDS011;46321;48.398;11.754;2023-04-08T07:19:48;25.65;;;14.77;;
60478;SDS011;46321;48.398;11.754;2023-04-08T07:22:14;23.48;;;12.13;;
60478;SDS011;46321;48.398;11.754;2023-04-08T07:24:40;21.42;;;12.02;;
60478;SDS011;46321;48.398;11.754;2023-04-08T07:27:07;24.85;;;13.50;;
60478;SDS011;46321;48.398;11.754;2023-04-08T07:29:33;24.40;;;13.80;;
60478;SDS011;46321;48.398;11.754;2023-04-08T07:31:58;37.22;;;18.83;;
60478;SDS011;46321;48.398;11.754;2023-04-08T07:34:23;30.38;;;15.32;;
60478;SDS011;46321;48.398;11.754;2023-04-08T07:36:49;26.20;;;14.27;;
60478;SDS011;46321;48.398;11.754;2023-04-08T07:39:14;22.00;;;11.93;;
60478;SDS011;46321;48.398;11.754;2023-04-08T07:41:40;20.05;;;11.13;;
60478;SDS011;46321;48.398;11.754;2023-04-08T07:44:05;21.60;;;11.82;;
60478;SDS011;46321;48.398;11.754;2023-04-08T07:46:31;20.42;;;11.77;;
60478;SDS011;46321;48.398;11.754;2023-04-08T07:49:00;20.92;;;11.27;;
60478;SDS011;46321;48.398;11.754;2023-04-08T07:51:25;19.95;;;10.95;;
60478;SDS011;46321;48.398;11.754;2023-04-08T07:53:51;20.33;;;11.02;;
60478;SDS011;46321;48.398;11.754;2023-04-08T07:56:16;18.45;;;10.80;;
60478;SDS011;46321;48.398;11.754;2023-04-08T07:58:42;18.65;;;10.98;;
60478;SDS011;46321;48.398;11.754;2023-04-08T08:01:15;20.25;;;11.70;;
60478;SDS011;46321;48.398;11.754;2023-04-08T08:03:45;26.70;;;13.80;;
60478;SDS011;46321;48.398;11.754;2023-04-08T08:06:11;20.90;;;10.73;;
60478;SDS011;46321;48.398;11.754;2023-04-08T08:08:36;21.45;;;11.52;;
60478;SDS011;46321;48.398;11.754;2023-04-08T08:11:02;19.55;;;10.77;;
60478;SDS011;46321;48.398;11.754;2023-04-08T08:13:27;19.35;;;10.75;;
60478;SDS011;46321;48.398;11.754;2023-04-08T08:15:52;20.48;;;11.25;;
60478;SDS011;46321;48.398;11.754;2023-04-08T08:18:18;22.27;;;10.85;;
60478;SDS011;46321;48.398;11.754;2023-04-08T08:20:43;20.17;;;11.52;;
60478;SDS011;46321;48.398;11.754;2023-04-08T08:23:08;19.35;;;10.70;;
60478;SDS011;46321;48.398;11.754;2023-04-08T08:25:34;20.52;;;11.02;;
60478;SDS011;46321;48.398;11.754;2023-04-08T08:27:59;18.65;;;10.55;;
60478;SDS011;46321;48.398;11.754;2023-04-08T08:30:24;24.75;;;11.90;;
60478;SDS011;46321;48.398;11.754;2023-04-08T08:32:50;23.08;;;10.80;;
60478;SDS011;46321;48.398;11.754;2023-04-08T08:35:16;18.85;;;10.38;;
60478;SDS011;46321;48.398;11.754;2023-04-08T08:37:41;18.17;;;10.35;;
60478;SDS011;46321;48.398;11.754;2023-04-08T08:40:07;17.73;;;10.20;;
60478;SDS011;46321;48.398;11.754;2023-04-08T08:42:33;16.70;;;9.70;;
60478;SDS011;46321;48.398;11.754;2023-04-08T08:45:00;19.45;;;9.85;;
60478;SDS011;46321;48.398;11.754;2023-04-08T08:47:27;21.75;;;10.70;;
60478;SDS011;46321;48.398;11.754;2023-04-08T08:49:53;20.63;;;10.40;;
60478;SDS011;46321;48.398;11.754;2023-04-08T08:52:18;16.00;;;9.93;;
60478;SDS011;46321;48.398;11.754;2023-04-08T08:54:44;17.02;;;10.25;;
60478;SDS011;46321;48.398;11.754;2023-04-08T08:57:19;19.95;;;10.35;;
60478;SDS011;46321;48.398;11.754;2023-04-08T08:59:45;18.80;;;10.40;;
60478;SDS011;46321;48.398;11.754;2023-04-08T09:02:29;17.95;;;9.90;;
60478;SDS011;46321;48.398;11.754;2023-04-08T09:05:05;18.30;;;10.20;;
60478;SDS011;46321;48.398;11.754;2023-04-08T09:07:31;18.35;;;9.82;;
60478;SDS011;46321;48.398;11.754;2023-04-08T09:10:00;16.55;;;9.63;;
60478;SDS011;46321;48.398;11.754;2023-04-08T09:12:25;18.15;;;10.05;;
60478;SDS011;46321;48.398;11.754;2023-04-08T09:15:04;19.30;;;10.48;;
60478;SDS011;46321;48.398;11.754;2023-04-08T09:17:32;19.92;;;10.25;;
60478;SDS011;46321;48.398;11.754;2023-04-08T09:20:11;18.20;;;10.40;;
60478;SDS011;46321;48.398;11.754;2023-04-08T09:22:53;21.73;;;10.77;;
60478;SDS011;46321;48.398;11.754;2023-04-08T09:25:30;18.42;;;10.85;;
60478;SDS011;46321;48.398;11.754;2023-04-08T09:27:57;20.70;;;10.88;;
60478;SDS011;46321;48.398;11.754;2023-04-08T09:30:23;20.83;;;11.75;;
60478;SDS011;46321;48.398;11.754;2023-04-08T09:32:51;20.58;;;11.55;;
60478;SDS011;46321;48.398;11.754;2023-04-08T09:35:18;18.48;;;10.98;;
60478;SDS011;46321;48.398;11.754;2023-04-08T09:37:44;16.60;;;8.95;;
60478;SDS011;46321;48.398;11.754;2023-04-08T09:40:11;11.43;;;6.57;;
60478;SDS011;46321;48.398;11.754;2023-04-08T09:42:39;11.60;;;7.35;;
60478;SDS011;46321;48.398;11.754;2023-04-08T09:45:08;12.30;;;6.55;;
60478;SDS011;46321;48.398;11.754;2023-04-08T09:47:38;8.32;;;5.38;;
60478;SDS011;46321;48.398;11.754;2023-04-08T09:50:11;9.95;;;5.32;;
60478;SDS011;46321;48.398;11.754;2023-04-08T09:52:43;9.20;;;5.15;;
60478;SDS011;46321;48.398;11.754;2023-04-08T09:55:12;25.40;;;13.13;;
60478;SDS011;46321;48.398;11.754;2023-04-08T09:57:51;16.83;;;8.90;;
60478;SDS011;46321;48.398;11.754;2023-04-08T10:00:32;5.60;;;3.63;;
60478;SDS011;46321;48.398;11.754;2023-04-08T10:03:04;7.82;;;4.63;;
60478;SDS011;46321;48.398;11.754;2023-04-08T10:05:35;7.88;;;5.15;;
60478;SDS011;46321;48.398;11.754;2023-04-08T10:08:02;10.30;;;5.32;;
60478;SDS011;46321;48.398;11.754;2023-04-08T10:10:27;8.30;;;5.53;;
60478;SDS011;46321;48.398;11.754;2023-04-08T10:12:53;11.82;;;6.68;;
60478;SDS011;46321;48.398;11.754;2023-04-08T10:23:07;14.48;;;7.57;;
60478;SDS011;46321;48.398;11.754;2023-04-08T10:25:33;15.43;;;9.20;;
60478;SDS011;46321;48.398;11.754;2023-04-08T10:27:59;13.75;;;9.30;;
60478;SDS011;46321;48.398;11.754;2023-04-08T10:30:47;13.75;;;8.68;;
60478;SDS011;46321;48.398;11.754;2023-04-08T10:35:54;13.77;;;7.72;;
60478;SDS011;46321;48.398;11.754;2023-04-08T10:38:26;12.38;;;8.20;;
60478;SDS011;46321;48.398;11.754;2023-04-08T10:40:52;14.43;;;8.43;;
60478;SDS011;46321;48.398;11.754;2023-04-08T10:43:18;12.23;;;7.88;;
60478;SDS011;46321;48.398;11.754;2023-04-08T10:45:44;14.80;;;8.07;;
60478;SDS011;46321;48.398;11.754;2023-04-08T10:48:21;15.63;;;10.55;;
60478;SDS011;46321;48.398;11.754;2023-04-08T10:50:56;17.40;;;12.52;;
60478;SDS011;46321;48.398;11.754;2023-04-08T10:53:33;14.63;;;8.82;;
60478;SDS011;46321;48.398;11.754;2023-04-08T10:58:30;14.18;;;8.55;;
60478;SDS011;46321;48.398;11.754;2023-04-08T11:01:01;13.80;;;8.70;;
60478;SDS011;46321;48.398;11.754;2023-04-08T11:03:27;12.75;;;8.07;;
60478;SDS011;46321;48.398;11.754;2023-04-08T11:05:53;15.93;;;8.88;;
60478;SDS011;46321;48.398;11.754;2023-04-08T11:08:26;14.90;;;8.60;;
60478;SDS011;46321;48.398;11.754;2023-04-08T11:10:53;14.98;;;8.23;;
60478;SDS011;46321;48.398;11.754;2023-04-08T11:13:18;17.83;;;8.27;;
60478;SDS011;46321;48.398;11.754;2023-04-08T11:15:44;14.55;;;8.40;;
60478;SDS011;46321;48.398;11.754;2023-04-08T11:18:10;11.68;;;7.28;;
60478;SDS011;46321;48.398;11.754;2023-04-08T11:20:35;10.52;;;7.07;;
60478;SDS011;46321;48.398;11.754;2023-04-08T11:23:01;11.10;;;6.35;;
60478;SDS011;46321;48.398;11.754;2023-04-08T11:25:27;11.35;;;7.20;;
60478;SDS011;46321;48.398;11.754;2023-04-08T11:27:53;12.05;;;7.28;;
60478;SDS011;46321;48.398;11.754;2023-04-08T11:30:18;13.00;;;7.45;;
60478;SDS011;46321;48.398;11.754;2023-04-08T11:32:44;12.48;;;6.72;;
60478;SDS011;46321;48.398;11.754;2023-04-08T11:35:09;14.30;;;7.75;;
60478;SDS011;46321;48.398;11.754;2023-04-08T11:37:35;15.93;;;8.68;;
60478;SDS011;46321;48.398;11.754;2023-04-08T11:40:05;15.35;;;8.77;;
60478;SDS011;46321;48.398;11.754;2023-04-08T11:42:37;12.93;;;7.78;;
60478;SDS011;46321;48.398;11.754;2023-04-08T11:45:09;16.63;;;8.70;;
60478;SDS011;46321;48.398;11.754;2023-04-08T11:47:40;14.63;;;8.38;;
60478;SDS011;46321;48.398;11.754;2023-04-08T11:50:06;16.90;;;8.93;;
60478;SDS011;46321;48.398;11.754;2023-04-08T11:55:10;15.75;;;8.57;;
60478;SDS011;46321;48.398;11.754;2023-04-08T11:57:56;15.55;;;8.65;;
60478;SDS011;46321;48.398;11.754;2023-04-08T12:00:25;17.30;;;9.63;;
60478;SDS011;46321;48.398;11.754;2023-04-08T12:02:51;19.67;;;10.25;;
60478;SDS011;46321;48.398;11.754;2023-04-08T12:05:17;15.18;;;8.77;;
60478;SDS011;46321;48.398;11.754;2023-04-08T12:07:42;20.48;;;10.73;;
60478;SDS011;46321;48.398;11.754;2023-04-08T12:10:11;26.65;;;13.52;;
60478;SDS011;46321;48.398;11.754;2023-04-08T12:12:37;19.50;;;9.90;;
60478;SDS011;46321;48.398;11.754;2023-04-08T12:15:03;14.80;;;8.60;;
60478;SDS011;46321;48.398;11.754;2023-04-08T12:17:29;17.08;;;10.13;;
60478;SDS011;46321;48.398;11.754;2023-04-08T12:19:55;16.50;;;9.77;;
60478;SDS011;46321;48.398;11.754;2023-04-08T12:22:20;16.15;;;9.93;;
60478;SDS011;46321;48.398;11.754;2023-04-08T12:24:46;15.63;;;9.07;;
60478;SDS011;46321;48.398;11.754;2023-04-08T12:27:11;18.52;;;10.00;;
60478;SDS011;46321;48.398;11.754;2023-04-08T12:29:36;17.33;;;10.32;;
60478;SDS011;46321;48.398;11.754;2023-04-08T12:32:02;17.88;;;10.00;;
60478;SDS011;46321;48.398;11.754;2023-04-08T12:34:29;19.60;;;11.48;;
60478;SDS011;46321;48.398;11.754;2023-04-08T12:36:55;20.52;;;10.98;;
60478;SDS011;46321;48.398;11.754;2023-04-08T12:39:20;20.10;;;11.52;;
60478;SDS011;46321;48.398;11.754;2023-04-08T12:41:46;20.50;;;11.02;;
60478;SDS011;46321;48.398;11.754;2023-04-08T12:44:11;19.08;;;10.25;;
60478;SDS011;46321;48.398;11.754;2023-04-08T12:46:37;18.05;;;10.02;;
60478;SDS011;46321;48.398;11.754;2023-04-08T12:49:02;19.35;;;10.52;;
60478;SDS011;46321;48.398;11.754;2023-04-08T12:51:27;18.35;;;10.82;;
60478;SDS011;46321;48.398;11.754;2023-04-08T12:53:53;21.17;;;11.30;;
60478;SDS011;46321;48.398;11.754;2023-04-08T12:56:19;22.20;;;11.93;;
60478;SDS011;46321;48.398;11.754;2023-04-08T12:58:46;17.98;;;10.27;;
60478;SDS011;46321;48.398;11.754;2023-04-08T13:01:12;17.00;;;10.45;;
60478;SDS011;46321;48.398;11.754;2023-04-08T13:03:37;18.30;;;10.77;;
60478;SDS011;46321;48.398;11.754;2023-04-08T13:06:02;17.45;;;9.57;;
60478;SDS011;46321;48.398;11.754;2023-04-08T13:08:28;17.65;;;9.88;;
60478;SDS011;46321;48.398;11.754;2023-04-08T13:10:53;19.05;;;9.43;;
60478;SDS011;46321;48.398;11.754;2023-04-08T13:13:19;15.93;;;8.95;;
60478;SDS011;46321;48.398;11.754;2023-04-08T13:15:44;17.27;;;9.30;;
60478;SDS011;46321;48.398;11.754;2023-04-08T13:18:11;17.55;;;9.93;;
60478;SDS011;46321;48.398;11.754;2023-04-08T13:20:36;16.35;;;9.05;;
60478;SDS011;46321;48.398;11.754;2023-04-08T13:23:02;15.18;;;8.90;;
60478;SDS011;46321;48.398;11.754;2023-04-08T13:25:27;14.95;;;8.45;;
60478;SDS011;46321;48.398;11.754;2023-04-08T13:27:52;15.93;;;8.27;;
60478;SDS011;46321;48.398;11.754;2023-04-08T13:30:18;16.35;;;9.38;;
60478;SDS011;46321;48.398;11.754;2023-04-08T13:32:43;15.52;;;9.52;;
60478;SDS011;46321;48.398;11.754;2023-04-08T13:35:09;15.43;;;9.25;;
60478;SDS011;46321;48.398;11.754;2023-04-08T13:37:34;15.30;;;8.52;;
60478;SDS011;46321;48.398;11.754;2023-04-08T13:40:00;16.98;;;9.75;;
60478;SDS011;46321;48.398;11.754;2023-04-08T13:42:25;14.35;;;9.05;;
60478;SDS011;46321;48.398;11.754;2023-04-08T13:44:51;14.48;;;8.73;;
60478;SDS011;46321;48.398;11.754;2023-04-08T13:47:16;14.70;;;8.60;;
60478;SDS011;46321;48.398;11.754;2023-04-08T13:49:41;15.73;;;9.00;;
60478;SDS011;46321;48.398;11.754;2023-04-08T13:52:07;16.23;;;9.13;;
60478;SDS011;46321;48.398;11.754;2023-04-08T13:54:32;16.02;;;9.23;;
60478;SDS011;46321;48.398;11.754;2023-04-08T13:56:57;17.88;;;10.63;;
60478;SDS011;46321;48.398;11.754;2023-04-08T13:59:23;18.13;;;10.05;;
60478;SDS011;46321;48.398;11.754;2023-04-08T14:01:48;18.25;;;9.63;;
60478;SDS011;46321;48.398;11.754;2023-04-08T14:04:17;17.23;;;10.50;;
60478;SDS011;46321;48.398;11.754;2023-04-08T14:06:43;21.02;;;10.73;;
60478;SDS011;46321;48.398;11.754;2023-04-08T14:09:08;19.13;;;10.50;;
60478;SDS011;46321;48.398;11.754;2023-04-08T14:11:34;16.60;;;9.40;;
60478;SDS011;46321;48.398;11.754;2023-04-08T14:13:59;18.45;;;10.35;;
60478;SDS011;46321;48.398;11.754;2023-04-08T14:16:25;19.80;;;10.48;;
60478;SDS011;46321;48.398;11.754;2023-04-08T14:18:51;19.02;;;10.27;;
60478;SDS011;46321;48.398;11.754;2023-04-08T14:21:16;14.95;;;9.30;;
60478;SDS011;46321;48.398;11.754;2023-04-08T14:23:42;17.65;;;10.02;;
60478;SDS011;46321;48.398;11.754;2023-04-08T14:26:07;22.10;;;12.18;;
60478;SDS011;46321;48.398;11.754;2023-04-08T14:28:33;19.33;;;10.00;;
60478;SDS011;46321;48.398;11.754;2023-04-08T14:30:58;17.73;;;9.18;;